createdAt,value
2022-12-04T05:00:30.421Z,99940.56
2022-12-04T05:04:33.114Z,99944.50
2022-12-04T05:08:36.446Z,99945.31
2022-12-04T05:12:39.106Z,99949.25
2022-12-04T05:16:43.135Z,99944.63
2022-12-04T05:20:45.725Z,99951.75
2022-12-04T05:24:48.502Z,99959.31
2022-12-04T05:28:51.218Z,99955.69
2022-12-04T05:32:55.218Z,99949.53
2022-12-04T05:36:57.924Z,99955.44
2022-12-04T05:41:01.042Z,99946.75
2022-12-04T05:45:03.729Z,99950.25
2022-12-04T05:49:07.777Z,99961.16
2022-12-04T05:53:10.454Z,99954.44
2022-12-04T05:57:13.108Z,99953.34
2022-12-04T06:01:17.651Z,99952.22
2022-12-04T06:05:21.751Z,99945.63
2022-12-04T06:09:24.538Z,99946.03
2022-12-04T06:13:27.934Z,99945.34
2022-12-04T06:17:30.679Z,99957.81
2022-12-04T06:21:37.168Z,99956.53
2022-12-04T06:25:39.820Z,99964.25
2022-12-04T06:29:42.474Z,99974.50
2022-12-04T06:33:45.383Z,99969.88
2022-12-04T06:37:49.391Z,99971.44
2022-12-04T06:41:52.003Z,99972.53
2022-12-04T06:46:01.226Z,99964.97
2022-12-04T06:50:04.458Z,99962.59
2022-12-04T06:54:08.807Z,99963.00
2022-12-04T06:58:11.475Z,99965.94
2022-12-04T07:02:14.137Z,99967.22
2022-12-04T07:06:19.437Z,99963.44
2022-12-04T07:10:23.477Z,99961.47
2022-12-04T07:14:26.208Z,99959.09
2022-12-04T07:18:29.226Z,99966.22
2022-12-04T07:22:31.835Z,99968.75
2022-12-04T07:26:35.918Z,99959.63
2022-12-04T07:30:39.274Z,99960.06
2022-12-04T07:34:41.879Z,99957.97
2022-12-04T07:38:44.925Z,99960.22
2022-12-04T07:42:48.980Z,99960.91
2022-12-04T07:46:51.635Z,99966.09
2022-12-04T07:51:03.299Z,99976.03
2022-12-04T07:55:07.248Z,99974.19
2022-12-04T07:59:11.205Z,99957.91
2022-12-04T08:03:13.858Z,99962.09
2022-12-04T08:07:16.581Z,99966.25
2022-12-04T08:11:22.190Z,99975.81
2022-12-04T08:15:26.257Z,99980.03
2022-12-04T08:19:28.942Z,99972.63
2022-12-04T08:23:31.767Z,99966.28
2022-12-04T08:27:34.597Z,99952.69
2022-12-04T08:31:38.642Z,99969.50
2022-12-04T08:35:41.310Z,99961.06
2022-12-04T08:39:43.922Z,99967.53
2022-12-04T08:43:46.629Z,99963.47
2022-12-04T08:47:52.619Z,99961.66
2022-12-04T08:51:55.475Z,99970.41
2022-12-04T08:55:58.392Z,99964.38
2022-12-04T09:00:01.653Z,99970.50
2022-12-04T09:04:06.146Z,99967.28
2022-12-04T09:08:09.292Z,99963.06
2022-12-04T09:12:12.501Z,99957.75
2022-12-04T09:16:17.586Z,99959.25
2022-12-04T09:20:21.784Z,99963.16
2022-12-04T09:24:24.422Z,99961.47
2022-12-04T09:28:27.201Z,99960.91
2022-12-04T09:32:29.822Z,99965.03
2022-12-04T09:36:33.806Z,99962.28
2022-12-04T09:40:44.140Z,99967.72
2022-12-04T09:44:51.467Z,99961.59
2022-12-04T09:48:57.083Z,99958.28
2022-12-04T09:53:07.373Z,99959.56
2022-12-04T09:57:18.048Z,99959.69
2022-12-04T10:01:23.888Z,99955.28
2022-12-04T10:05:38.972Z,99956.81
2022-12-04T10:09:52.542Z,99947.13
2022-12-04T10:14:07.103Z,99948.66
2022-12-04T10:18:23.307Z,99946.84
2022-12-04T10:22:34.468Z,99938.16
2022-12-04T10:26:44.533Z,99929.94
2022-12-04T10:30:49.257Z,99930.91
2022-12-04T10:34:55.116Z,99929.09
2022-12-04T10:39:00.532Z,99932.41
2022-12-04T10:43:12.492Z,99928.44
2022-12-04T10:47:15.447Z,99915.69
2022-12-04T10:51:20.199Z,99902.84
2022-12-04T10:55:30.521Z,99900.63
2022-12-04T10:59:37.020Z,99902.28
2022-12-04T11:03:40.445Z,99898.09
2022-12-04T11:07:46.393Z,99906.56
2022-12-04T11:11:50.013Z,99901.78
2022-12-04T11:15:55.906Z,99907.78
2022-12-04T11:20:02.838Z,99907.84
2022-12-04T11:24:05.996Z,99903.41
2022-12-04T11:28:39.877Z,99912.56
2022-12-04T11:32:42.081Z,99915.84
2022-12-04T11:36:50.715Z,99913.66
2022-12-04T11:40:56.039Z,99919.06
2022-12-04T11:45:00.048Z,99921.88
2022-12-04T11:49:04.353Z,99904.88
2022-12-04T11:53:16.865Z,99905.56
2022-12-04T11:57:29.536Z,99898.09
2022-12-04T12:01:41.949Z,99892.53
2022-12-04T12:06:07.042Z,99884.38
2022-12-04T12:10:20.088Z,99888.34
2022-12-04T12:14:31.366Z,99884.78
2022-12-04T12:18:55.771Z,99879.59
2022-12-04T12:23:24.585Z,99879.19
2022-12-04T12:27:47.371Z,99876.06
2022-12-04T12:32:09.888Z,99884.59
2022-12-04T12:36:14.901Z,99881.16
2022-12-04T12:40:30.137Z,99880.19
2022-12-04T12:44:41.678Z,99871.88
2022-12-04T12:48:57.969Z,99872.72
2022-12-04T12:53:06.236Z,99865.84
2022-12-04T12:57:15.794Z,99860.75
2022-12-04T13:01:23.750Z,99855.72
2022-12-04T13:05:31.217Z,99845.34
2022-12-04T13:09:38.864Z,99839.25
2022-12-04T13:13:47.123Z,99834.44
2022-12-04T13:17:52.771Z,99833.72
2022-12-04T13:22:07.771Z,99828.38
2022-12-04T13:26:23.489Z,99814.09
2022-12-04T13:30:37.943Z,99817.63
2022-12-04T13:34:51.697Z,99799.66
2022-12-04T13:39:19.826Z,99797.72
2022-12-04T13:43:46.999Z,99809.31
2022-12-04T13:47:58.133Z,99801.78
2022-12-04T13:52:03.002Z,99794.59
2022-12-04T13:56:10.324Z,99787.50
2022-12-04T14:00:28.947Z,99787.47
2022-12-04T14:04:41.367Z,99780.56
2022-12-04T14:08:44.882Z,99780.44
2022-12-04T14:12:51.938Z,99776.31
2022-12-04T14:16:56.072Z,99772.41
2022-12-04T14:21:04.532Z,99776.91
2022-12-04T14:25:35.737Z,99781.63
2022-12-04T14:29:50.794Z,99781.09
2022-12-04T14:33:57.941Z,99781.03
2022-12-04T14:38:05.145Z,99780.34
2022-12-04T14:42:14.801Z,99773.03
2022-12-04T14:46:24.414Z,99769.44
2022-12-04T14:50:35.147Z,99763.22
2022-12-04T14:54:47.199Z,99761.78
2022-12-04T14:58:50.370Z,99766.78
2022-12-04T15:02:56.090Z,99764.72
2022-12-04T15:07:00.731Z,99772.19
2022-12-04T15:11:24.801Z,99780.19
2022-12-04T15:15:28.725Z,99792.31
2022-12-04T15:19:31.258Z,99796.53
2022-12-04T15:23:37.272Z,99797.34
2022-12-04T15:27:41.661Z,99799.19
2022-12-04T15:31:50.245Z,99805.63
2022-12-04T15:35:57.046Z,99806.03
2022-12-04T15:40:00.523Z,99809.31
2022-12-04T15:44:22.021Z,99805.44
2022-12-04T15:48:29.321Z,99804.28
2022-12-04T15:52:32.004Z,99805.25
2022-12-04T15:56:34.618Z,99808.31
2022-12-04T16:00:42.430Z,99811.47
2022-12-04T16:04:57.054Z,99808.16
2022-12-04T16:09:01.649Z,99809.66
2022-12-04T16:13:06.217Z,99806.25
2022-12-04T16:17:11.689Z,99808.31
2022-12-04T16:21:17.329Z,99811.63
2022-12-04T16:25:20.079Z,99826.03
2022-12-04T16:29:23.066Z,99821.66
2022-12-04T16:33:27.043Z,99814.84
2022-12-04T16:37:31.629Z,99825.97
2022-12-04T16:41:34.298Z,99825.91
2022-12-04T16:45:37.138Z,99823.84
2022-12-04T16:49:41.895Z,99824.19
2022-12-04T16:53:45.148Z,99834.97
2022-12-04T16:57:48.133Z,99830.34
2022-12-04T17:01:52.395Z,99826.81
2022-12-04T17:05:57.394Z,99824.25
2022-12-04T17:09:59.965Z,99818.81
2022-12-04T17:14:06.953Z,99820.19
2022-12-04T17:18:13.905Z,99823.41
2022-12-04T17:22:23.112Z,99819.06
2022-12-04T17:26:25.692Z,99826.31
2022-12-04T17:30:32.873Z,99830.25
2022-12-04T17:34:38.904Z,99818.59
2022-12-04T17:38:43.249Z,99816.31
2022-12-04T17:42:45.837Z,99822.16
2022-12-04T17:46:48.493Z,99814.59
2022-12-04T17:50:51.534Z,99823.59
2022-12-04T17:54:55.859Z,99827.09
2022-12-04T17:58:58.798Z,99825.69
2022-12-04T18:03:02.511Z,99822.53
2022-12-04T18:07:05.345Z,99811.13
2022-12-04T18:11:09.672Z,99808.94
2022-12-04T18:15:12.328Z,99813.31
2022-12-04T18:19:15.940Z,99797.88
2022-12-04T18:23:18.388Z,99806.81
2022-12-04T18:27:22.410Z,99799.81
2022-12-04T18:31:25.316Z,99799.16
2022-12-04T18:35:28.007Z,99805.47
2022-12-04T18:39:30.739Z,99805.91
2022-12-04T18:43:35.453Z,99798.97
2022-12-04T18:47:38.071Z,99805.31
2022-12-04T18:51:45.812Z,99810.22
2022-12-04T18:55:52.177Z,99814.81
2022-12-04T18:59:56.409Z,99806.06
2022-12-04T19:04:01.326Z,99818.34
2022-12-04T19:08:04.319Z,99815.25
2022-12-04T19:12:07.365Z,99822.84
2022-12-04T19:16:14.014Z,99822.84
2022-12-04T19:20:18.135Z,99824.47
2022-12-04T19:24:20.735Z,99833.41
2022-12-04T19:28:23.426Z,99825.06
2022-12-04T19:32:27.497Z,99826.47
2022-12-04T19:36:32.919Z,99825.25
2022-12-04T19:40:35.542Z,99825.66
2022-12-04T19:44:53.780Z,99824.44
2022-12-04T19:49:01.922Z,99840.41
2022-12-04T19:53:04.979Z,99842.09
2022-12-04T19:57:07.672Z,99841.00
2022-12-04T20:01:13.096Z,99831.03
2022-12-04T20:05:17.279Z,99825.03
2022-12-04T20:09:21.975Z,99821.78
2022-12-04T20:13:24.609Z,99824.44
2022-12-04T20:17:28.919Z,99828.78
2022-12-04T20:21:33.290Z,99826.94
2022-12-04T20:25:36.441Z,99825.69
2022-12-04T20:29:39.063Z,99817.16
2022-12-04T20:33:41.986Z,99817.28
2022-12-04T20:37:45.943Z,99812.44
2022-12-04T20:41:48.853Z,99809.66
2022-12-04T20:45:51.603Z,99802.31
2022-12-04T20:49:54.538Z,99803.41
2022-12-04T20:54:00.095Z,99805.09
2022-12-04T20:58:02.688Z,99800.91
2022-12-04T21:02:05.378Z,99793.50
2022-12-04T21:06:13.233Z,99795.03
2022-12-04T21:10:17.282Z,99785.25
2022-12-04T21:14:39.351Z,99785.06
2022-12-04T21:18:41.941Z,99777.47
2022-12-04T21:22:44.781Z,99783.88
2022-12-04T21:26:49.125Z,99782.97
2022-12-04T21:30:51.818Z,99777.97
2022-12-04T21:34:54.498Z,99783.34
2022-12-04T21:38:58.249Z,99777.75
2022-12-04T21:43:02.209Z,99768.88
2022-12-04T21:47:05.013Z,99770.63
2022-12-04T21:51:21.534Z,99767.97
2022-12-04T21:55:31.201Z,99759.59
2022-12-04T21:59:35.168Z,99766.84
